ENSE

Snorre A Oilp

Snorre A Oilp, Norway
METAR ENSE 201450Z AUTO 20032KT 9999NDV -RA FEW010/// BKN016/// OVC021/// 05/03 Q1020 W///S5
Observed Flight Rules
Feb-20 @ 14:50 UTC (2 hours ago)
Wind Clouds Conditions
200° at 32 knots
  • Few at 1,000' AGL
  • Broken at 1,600' AGL
  • Overcast at 2,100' AGL
  • Light Rain
Temperatures Readings
Current 5°C / 41°F
Dewpoint 3°C / 37°F
Humidity 87%
Altimeter 30.12" Hg
Pressure 1020 hPa
Elevation 10
METAR ENSE 201450Z AUTO 20032KT 9999NDV -RA FEW010/// BKN016/// OVC021/// 05/03 Q1020 W///S5
Observed Flight Rules
Feb-20 @ 14:50 UTC
(2 hours ago)
Wind
200° at 32 knots
Clouds
  • Few at 1,000' AGL
  • Broken at 1,600' AGL
  • Overcast at 2,100' AGL
Conditions
  • Light Rain
Temperature Dewpoint
5°C / 41°F 3°C / 37°F
Humidity Altimeter Pressure
87% 30.12" Hg 1020 hPa